Latest Weather Observations for Mount Keith

IDW60801

Issued at 6:05 am WST Sunday 31 August 2014 (issued every 30 minutes, with the page automatically refreshed every 10 minutes)

About weather observations | Map of weather stations | Latest weather observations for WA | Other Formats
Station Details ID: 512019 Name: MOUNT KEITH Lat: -27.29 Lon: 120.55 Height: 542.33 m
Data from the previous 72 hours. | See also: Recent months for locations in Western Australia
Date/Time
WST
Temp
°C
App
Temp
°C
Dew
Point
Rel
Hum
%
Delta-T
°C
Wind Press
QNH
hPa
Press
MSL
hPa
Rain
since 9 am
mm
Dir
 
Spd
km/h
Gust
km/h
Spd
kts
Gust
kts
31/06:00am 11.2 10.2 5.7 69 2.6 SW 0 0 0 0 1018.2 1017.4 0.0
31/05:30am 11.4 9.5 6.5 72 2.4 SW 6 7 3 4 1018.0 1017.2 0.0
31/05:00am 11.8 11.0 6.7 71 2.5 CALM 0 0 0 0 1017.8 1016.9 0.0
31/04:30am 13.2 12.4 8.1 71 2.6 SSW 2 6 1 3 1017.7 1016.8 0.0
31/04:00am 14.2 11.5 9.0 71 2.7 SSW 13 15 7 8 1017.6 1016.7 0.0
31/03:30am 14.5 11.7 8.5 67 3.1 SSW 13 19 7 10 1017.7 1016.8 0.0
31/03:00am 14.5 11.6 6.3 58 4.1 S 11 15 6 8 1017.7 1016.8 0.0
31/02:30am 15.0 11.1 3.5 46 5.4 SSW 13 19 7 10 1017.6 1016.7 0.0
31/02:00am 16.1 10.7 1.4 37 6.7 SW 19 24 10 13 1017.8 1016.9 0.0
31/01:30am 17.1 11.7 -1.1 29 7.9 WSW 17 30 9 16 1017.6 1016.7 0.0
31/01:00am 16.8 11.6 -2.8 26 8.2 W 15 17 8 9 1017.4 1016.5 0.0
31/12:30am 16.7 11.8 -3.4 25 8.3 W 13 17 7 9 1017.5 1016.6 0.0
31/12:00am 17.8 12.2 -2.5 25 8.6 W 17 20 9 11 1017.7 1016.8 0.0
 
Date/Time
WST
Temp
°C
App
Temp
°C
Dew
Point
Rel
Hum
%
Delta-T
°C
Wind Press
QNH
hPa
Press
MSL
hPa
Rain
since 9 am
mm
Dir
 
Spd
km/h
Gust
km/h
Spd
kts
Gust
kts
30/11:30pm 18.3 12.2 -3.8 22 9.2 W 19 20 10 11 1017.9 1017.0 0.0
30/11:00pm 19.1 12.9 -5.0 19 9.8 W 19 24 10 13 1018.1 1017.3 0.0
30/10:30pm 20.2 13.8 -4.8 18 10.4 W 20 28 11 15 1018.2 1017.4 0.0
30/10:00pm 21.5 14.4 -4.5 17 10.9 W 24 32 13 17 1018.2 1017.4 0.0
30/09:30pm 21.1 14.6 -5.7 16 11.0 W 20 26 11 14 1018.4 1017.6 0.0
30/09:00pm 20.6 14.7 -5.3 17 10.6 W 17 20 9 11 1018.6 1017.8 0.0
30/08:30pm 18.9 14.3 -4.5 20 9.6 W 11 13 6 7 1018.5 1017.7 0.0
30/08:00pm 19.9 15.2 -5.1 18 10.2 W 11 13 6 7 1018.2 1017.4 0.0
30/07:30pm 21.0 16.2 -5.7 16 10.9 W 11 13 6 7 1018.1 1017.3 0.0
30/07:00pm 21.9 16.7 -5.9 15 11.4 W 13 15 7 8 1017.7 1016.8 0.0
30/06:30pm 23.4 18.2 -6.5 13 12.4 W 13 15 7 8 1017.4 1016.5 0.0
30/06:00pm 25.1 18.6 -7.4 11 13.4 W 19 24 10 13 1017.1 1016.2 0.0
30/05:30pm 26.2 20.2 -6.5 11 13.9 W 17 24 9 13 1016.7 1015.9 0.0
30/05:00pm 27.2 20.2 -7.0 10 14.5 W 22 30 12 16 1016.6 1015.8 0.0
30/04:30pm 27.8 21.2 -6.6 10 14.8 W 20 30 11 16 1016.3 1015.4 0.0
30/04:00pm 27.8 21.9 -5.3 11 14.5 W 17 26 9 14 1016.2 1015.3 0.0
30/03:30pm 28.1 20.0 -6.3 10 14.9 WNW 28 35 15 19 1016.3 1015.4 0.0
30/03:00pm 28.0 20.4 -5.2 11 14.6 WNW 26 35 14 19 1016.4 1015.6 0.0
30/02:30pm 27.7 20.9 -5.4 11 14.5 WNW 22 35 12 19 1016.7 1015.9 0.0
30/02:00pm 27.9 20.7 -5.2 11 14.6 W 24 35 13 19 1016.9 1016.1 0.0
30/01:30pm 27.5 21.0 -5.6 11 14.4 WNW 20 32 11 17 1017.4 1016.5 0.0
30/01:00pm 27.5 21.2 -4.4 12 14.2 W 20 28 11 15 1017.7 1016.8 0.0
30/12:30pm 26.6 20.2 -5.1 12 13.8 W 20 32 11 17 1018.1 1017.3 0.0
30/12:00pm 26.1 21.1 -4.4 13 13.4 W 13 22 7 12 1018.5 1017.7 0.0
30/11:30am 25.7 20.7 -4.7 13 13.3 W 13 30 7 16 1019.1 1018.2 0.0
30/11:00am 24.8 19.0 -4.5 14 12.7 W 17 26 9 14 1019.6 1018.8 0.0
30/10:30am 24.3 19.8 -3.1 16 12.2 W 11 20 6 11 1020.1 1019.3 0.0
30/10:00am 23.8 20.1 -2.7 17 11.8 W 7 13 4 7 1020.2 1019.4 0.0
30/09:30am 22.9 19.5 -1.9 19 11.1 WSW 6 9 3 5 1020.5 1019.7 0.0
30/09:00am 21.7 18.3 -2.2 20 10.5 WSW 6 11 3 6 1020.6 1019.8 0.0
30/08:30am 20.6 18.5 -0.7 24 9.6 CALM 0 0 0 0 1020.6 1019.8 0.0
30/08:00am 18.3 16.1 -1.5 26 8.6 CALM 0 6 0 3 1020.5 1019.7 0.0
30/07:30am 15.0 12.7 -2.0 31 7.1 CALM 0 0 0 0 1020.1 1019.3 0.0
30/07:00am 12.9 9.4 -2.6 34 6.2 NW 6 7 3 4 1019.7 1018.9 0.0
30/06:30am 10.9 7.2 -3.2 37 5.5 NW 7 9 4 5 1019.3 1018.4 0.0
30/06:00am 11.0 7.2 -3.5 36 5.6 W 7 9 4 5 1019.1 1018.2 0.0
30/05:30am 12.0 7.8 -3.8 33 6.1 WNW 9 11 5 6 1018.7 1017.9 0.0
30/05:00am 12.5 8.4 -3.3 33 6.2 WNW 9 11 5 6 1018.5 1017.7 0.0
30/04:30am 11.9 7.8 -3.1 35 5.9 W 9 9 5 5 1018.5 1017.7 0.0
30/04:00am 10.7 8.2 -4.1 35 5.6 CALM 0 0 0 0 1018.5 1017.7 0.0
30/03:30am 11.2 8.6 -4.5 33 6.0 CALM 0 0 0 0 1018.3 1017.5 0.0
30/03:00am 13.2 8.9 -4.9 28 6.9 W 9 13 5 7 1018.2 1017.4 0.0
30/02:30am 14.4 9.4 -4.3 27 7.4 W 13 15 7 8 1018.1 1017.3 0.0
30/02:00am 14.9 9.9 -3.9 27 7.5 W 13 13 7 7 1017.8 1016.9 0.0
30/01:30am 15.4 10.4 -4.0 26 7.8 WSW 13 13 7 7 1017.8 1016.9 0.0
30/01:00am 15.4 10.4 -4.0 26 7.8 WSW 13 13 7 7 1018.2 1017.4 0.0
30/12:30am 15.7 11.1 -4.2 25 8.0 WSW 11 13 6 7 1018.2 1017.4 0.0
30/12:00am 15.9 11.2 -4.6 24 8.1 WSW 11 11 6 6 1018.3 1017.5 0.0
 
Date/Time
WST
Temp
°C
App
Temp
°C
Dew
Point
Rel
Hum
%
Delta-T
°C
Wind Press
QNH
hPa
Press
MSL
hPa
Rain
since 9 am
mm
Dir
 
Spd
km/h
Gust
km/h
Spd
kts
Gust
kts
29/11:30pm 16.9 12.3 -4.3 23 8.6 WSW 11 13 6 7 1018.5 1017.7 0.0
29/11:00pm 18.2 13.2 -4.5 21 9.3 W 13 15 7 8 1018.4 1017.6 0.0
29/10:30pm 18.8 13.4 -4.6 20 9.6 W 15 17 8 9 1018.6 1017.8 0.0
29/10:00pm 17.1 12.5 -4.2 23 8.6 W 11 15 6 8 1018.5 1017.7 0.0
29/09:30pm 17.6 13.4 -3.7 23 8.8 W 9 9 5 5 1018.3 1017.5 0.0
29/09:00pm 18.3 14.1 -3.8 22 9.2 W 9 11 5 6 1018.4 1017.6 0.0
29/08:30pm 18.8 15.0 -4.0 21 9.5 W 7 9 4 5 1018.3 1017.5 0.0
29/08:00pm 19.8 15.5 -4.5 19 10.1 W 9 9 5 5 1018.3 1017.5 0.0
29/07:30pm 21.5 17.2 -4.5 17 11.0 W 9 11 5 6 1017.9 1017.0 0.0
29/07:00pm 22.3 17.6 -4.7 16 11.4 W 11 11 6 6 1017.5 1016.6 0.0
29/06:30pm 23.5 19.1 -5.5 14 12.2 W 9 9 5 5 1016.9 1016.1 0.0
29/06:00pm 26.0 20.5 -5.6 12 13.6 W 15 20 8 11 1016.4 1015.6 0.0
29/05:30pm 27.7 21.7 -6.6 10 14.7 W 17 24 9 13 1016.1 1015.2 0.0
29/05:00pm 28.9 23.2 -7.1 9 15.4 WNW 15 20 8 11 1016.0 1015.1 0.0
29/04:30pm 29.6 24.2 -8.1 8 16.0 NW 13 19 7 10 1015.9 1015.0 0.0
29/04:00pm 29.4 23.3 -8.2 8 15.9 NNW 17 28 9 15 1015.9 1015.0 0.0
29/03:30pm 29.4 22.7 -8.2 8 15.9 WNW 20 28 11 15 1016.1 1015.2 0.0
29/03:00pm 29.7 23.2 -8.0 8 16.0 NNW 19 33 10 18 1016.2 1015.3 0.0
29/02:30pm 29.6 22.5 -8.1 8 16.0 NNW 22 35 12 19 1016.3 1015.4 0.0
29/02:00pm 29.4 22.3 -8.2 8 15.9 NNW 22 35 12 19 1016.5 1015.7 0.0
29/01:30pm 29.1 22.7 -7.0 9 15.6 NNW 19 33 10 18 1016.7 1015.9 0.0
29/01:00pm 29.4 22.8 -6.7 9 15.7 NNW 20 32 11 17 1017.2 1016.3 0.0
29/12:30pm 28.7 22.1 -7.3 9 15.4 WNW 20 26 11 14 1017.6 1016.7 0.0
29/12:00pm 28.4 21.7 -7.5 9 15.2 NNW 20 35 11 19 1018.2 1017.4 0.0
29/11:30am 28.0 21.5 -7.8 9 15.1 NNW 19 28 10 15 1018.6 1017.8 0.0
29/11:00am 27.0 20.6 -7.2 10 14.4 NNW 19 26 10 14 1019.1 1018.2 0.0
29/10:30am 26.3 19.3 -7.7 10 14.1 NNW 22 33 12 18 1019.5 1018.6 0.0
29/10:00am 25.6 19.1 -8.2 10 13.8 N 19 28 10 15 1019.7 1018.9 0.0
29/09:30am 24.0 17.9 -8.2 11 13.0 NNW 17 28 9 15 1020.0 1019.2 0.0
29/09:00am 22.2 16.0 -8.5 12 12.0 NW 17 20 9 11 1020.1 1019.3 0.0
29/08:30am 21.7 16.3 -7.9 13 11.7 NNW 13 20 7 11 1020.0 1019.2 0.0
29/08:00am 21.0 15.7 -7.5 14 11.2 NW 13 19 7 10 1019.8 1019.0 0.0
29/07:30am 17.3 12.4 -7.2 18 9.4 NNW 11 17 6 9 1019.7 1018.9 0.0
29/07:00am 14.7 11.5 -7.4 21 8.2 N 2 6 1 3 1019.3 1018.4 0.0
29/06:30am 14.0 9.0 -7.9 21 8.0 N 11 15 6 8 1019.1 1018.2 0.0
29/06:00am 14.4 9.8 -7.6 21 8.1 NW 9 11 5 6 1019.2 1018.3 0.0
29/05:30am 15.6 8.9 -8.6 18 8.8 WNW 20 24 11 13 1018.4 1017.6 0.0
29/05:00am 19.0 11.9 -8.2 15 10.4 N 22 32 12 17 1018.0 1017.2 0.0
29/04:30am 19.3 12.2 -8.8 14 10.6 N 22 30 12 16 1017.8 1016.9 0.0
29/04:00am 19.4 11.9 -8.7 14 10.7 N 24 33 13 18 1017.8 1016.9 0.0
29/03:30am 20.1 13.3 -9.1 13 11.1 N 20 30 11 16 1017.7 1016.8 0.0
29/03:00am 21.3 14.1 -9.2 12 11.7 N 22 30 12 16 1017.7 1016.8 0.0
29/02:30am 21.1 14.6 -8.4 13 11.5 NNW 19 30 10 16 1017.9 1017.0 0.0
29/02:00am 20.2 14.0 -9.1 13 11.1 NNW 17 24 9 13 1018.1 1017.3 0.0
29/01:30am 19.8 13.6 -8.4 14 10.8 NNW 17 20 9 11 1018.4 1017.6 0.0
29/01:00am 19.2 13.4 -8.9 14 10.6 N 15 17 8 9 1018.7 1017.9 0.0
29/12:30am 19.0 13.2 -9.1 14 10.5 NNW 15 20 8 11 1018.8 1018.0 0.0
29/12:00am 19.4 14.0 -8.7 14 10.6 NNW 13 17 7 9 1018.8 1018.0 0.0
 
Date/Time
WST
Temp
°C
App
Temp
°C
Dew
Point
Rel
Hum
%
Delta-T
°C
Wind Press
QNH
hPa
Press
MSL
hPa
Rain
since 9 am
mm
Dir
 
Spd
km/h
Gust
km/h
Spd
kts
Gust
kts
28/11:30pm 18.3 12.8 -9.6 14 10.3 NW 13 15 7 8 1019.1 1018.2 0.0
28/11:00pm 19.8 15.2 -7.5 15 10.6 NNW 9 11 5 6 1019.1 1018.2 0.0
28/10:30pm 17.1 12.9 -7.4 18 9.3 NNW 7 9 4 5 1019.1 1018.2 0.0
28/10:00pm 17.6 13.2 -6.3 19 9.3 NNW 9 11 5 6 1019.3 1018.4 0.0
28/09:30pm 16.8 12.6 -7.6 18 9.2 NNW 7 9 4 5 1019.3 1018.4 0.0
28/09:00pm 19.8 15.2 -7.5 15 10.6 NNW 9 11 5 6 1019.3 1018.4 0.0
28/08:30pm 21.6 16.6 -8.0 13 11.7 NNW 11 13 6 7 1019.4 1018.5 0.0
28/08:00pm 21.6 16.5 -9.0 12 11.8 N 11 13 6 7 1019.2 1018.3 0.0
28/07:30pm 21.9 16.8 -8.8 12 12.0 NW 11 13 6 7 1019.0 1018.1 0.0
28/07:00pm 23.0 17.9 -9.0 11 12.5 NNW 11 13 6 7 1018.7 1017.9 0.0
28/06:30pm 24.4 19.3 -9.1 10 13.3 N 11 13 6 7 1018.3 1017.5 0.0
28/06:00pm 25.3 20.2 -9.8 9 13.9 N 11 15 6 8 1017.9 1017.0 0.0
28/05:30pm 26.9 21.5 -8.6 9 14.6 N 13 17 7 9 1017.7 1016.8 0.0
28/05:00pm 27.5 20.9 -9.7 8 15.0 N 19 24 10 13 1017.6 1016.7 0.0
28/04:30pm 28.5 21.7 -8.9 8 15.5 N 20 30 11 16 1017.6 1016.7 0.0
28/04:00pm 28.6 21.5 -8.8 8 15.5 NNW 22 32 12 17 1017.4 1016.5 0.0
28/03:30pm 28.9 22.7 -8.6 8 15.7 N 17 30 9 16 1017.5 1016.6 0.0
28/03:00pm 29.4 22.2 -9.9 7 16.1 N 22 30 12 16 1017.7 1016.8 0.0
28/02:30pm 28.7 22.1 -8.8 8 15.6 N 19 33 10 18 1017.8 1016.9 0.0
28/02:00pm 29.0 21.9 -8.5 8 15.7 N 22 30 12 16 1018.0 1017.2 0.0
28/01:30pm 28.4 21.7 -7.5 9 15.2 NNE 20 28 11 15 1018.1 1017.3 0.0
28/01:00pm 28.8 22.2 -8.7 8 15.6 N 19 26 10 14 1018.6 1017.8 0.0
28/12:30pm 28.5 20.7 -7.4 9 15.3 N 26 37 14 20 1018.8 1018.0 0.0
28/12:00pm 28.5 22.4 -7.4 9 15.2 NNE 17 28 9 15 1019.4 1018.5 0.0
28/11:30am 27.9 21.3 -6.5 10 14.8 N 20 26 11 14 1019.7 1018.9 0.0
28/11:00am 27.4 20.4 -6.9 10 14.6 N 22 33 12 18 1020.1 1019.3 0.0
28/10:30am 27.6 19.9 -6.7 10 14.7 N 26 35 14 19 1020.7 1019.9 0.0
28/10:00am 26.6 19.9 -7.5 10 14.2 N 20 28 11 15 1021.1 1020.2 0.0
28/09:30am 25.7 19.8 -5.8 12 13.5 N 17 24 9 13 1021.3 1020.5 0.0
28/09:00am 23.8 17.8 -6.2 13 12.5 N 17 22 9 12 1021.3 1020.5 0.0
28/08:30am 22.3 17.2 -5.6 15 11.6 N 13 20 7 11 1021.2 1020.4 0.0
28/08:00am 20.9 17.0 -4.3 18 10.6 NE 7 9 4 5 1021.0 1020.1 0.0
28/07:54am 20.5 16.7 -3.9 19 10.3 NE 7 9 4 5 1021.0 1020.1 0.0
28/07:30am 15.5 13.1 -3.4 27 7.7 CALM 0 0 0 0 1020.8 1020.0 0.0
28/07:00am 12.4 9.9 -3.8 32 6.3 CALM 0 0 0 0 1020.5 1019.7 0.0
28/06:30am 9.6 7.0 -5.1 35 5.4 CALM 0 6 0 3 1020.2 1019.4 0.0

Other Formats:

Comma delimited format used in spreadsheet applications
http://www.bom.gov.au/fwo/IDW60801/IDW60801.99434.axf

JavaScript Object Notation format (JSON) in row-major order
http://www.bom.gov.au/fwo/IDW60801/IDW60801.99434.json